createdAt,value
2017-03-29T00:00:21.620Z,12.10
2017-03-29T00:01:21.580Z,12.15
2017-03-29T00:02:22.388Z,12.05
2017-03-29T00:03:22.343Z,12.04
2017-03-29T00:04:22.216Z,12.04
2017-03-29T00:05:22.101Z,12.09
2017-03-29T00:06:22.401Z,12.09
2017-03-29T00:07:21.488Z,12.05
2017-03-29T00:08:22.124Z,12.08
2017-03-29T00:09:17.339Z,12.05
2017-03-29T00:10:22.392Z,12.03
2017-03-29T00:11:21.770Z,11.95
2017-03-29T00:12:22.337Z,11.97
2017-03-29T00:13:21.770Z,11.84
2017-03-29T00:14:17.389Z,11.85
2017-03-29T00:15:21.670Z,11.81
2017-03-29T00:16:21.880Z,11.93
2017-03-29T00:17:16.851Z,11.89
2017-03-29T00:18:22.432Z,11.94
2017-03-29T00:19:21.771Z,11.87
2017-03-29T00:20:21.586Z,11.90
2017-03-29T00:21:22.539Z,11.93
2017-03-29T00:22:22.643Z,11.99
2017-03-29T00:23:22.457Z,12.02
2017-03-29T00:24:21.894Z,12.02
2017-03-29T00:25:21.944Z,12.08
2017-03-29T00:26:21.941Z,12.06
2017-03-29T00:27:17.626Z,12.06
2017-03-29T00:28:26.823Z,12.13
2017-03-29T00:29:17.782Z,12.01
2017-03-29T00:30:16.828Z,12.08
2017-03-29T00:31:22.332Z,12.09
2017-03-29T00:32:22.062Z,12.13
2017-03-29T00:33:22.391Z,12.14
2017-03-29T00:34:22.465Z,12.08
2017-03-29T00:35:22.199Z,12.06
2017-03-29T00:36:21.802Z,12.06
2017-03-29T00:37:22.503Z,12.03
2017-03-29T00:38:22.119Z,12.08
2017-03-29T00:39:22.272Z,12.14
2017-03-29T00:40:42.502Z,12.16
2017-03-29T00:41:32.367Z,12.24
2017-03-29T00:42:21.642Z,12.21
2017-03-29T00:43:22.608Z,12.20
2017-03-29T00:44:21.922Z,12.19
2017-03-29T00:45:21.939Z,12.20
2017-03-29T00:46:22.053Z,12.20
2017-03-29T00:47:22.129Z,12.18
2017-03-29T00:48:28.400Z,12.16
2017-03-29T00:49:22.450Z,12.23
2017-03-29T00:50:22.346Z,12.24
2017-03-29T00:51:21.652Z,12.18
2017-03-29T00:52:22.209Z,12.22
2017-03-29T00:53:21.773Z,12.26
2017-03-29T00:54:21.903Z,12.26
2017-03-29T00:55:21.686Z,12.22
2017-03-29T00:56:27.480Z,12.17
2017-03-29T00:57:18.737Z,12.21
2017-03-29T00:58:17.191Z,12.15
2017-03-29T00:59:17.795Z,12.11
2017-03-29T01:00:32.458Z,12.11
2017-03-29T01:01:22.559Z,12.11
2017-03-29T01:02:21.563Z,12.07
2017-03-29T01:03:27.490Z,12.03
2017-03-29T01:04:22.281Z,12.08
2017-03-29T01:05:21.769Z,12.02
2017-03-29T01:06:21.799Z,12.05
2017-03-29T01:07:21.873Z,12.00
2017-03-29T01:08:21.727Z,11.94
2017-03-29T01:09:21.697Z,11.92
2017-03-29T01:10:22.080Z,11.91
2017-03-29T01:11:22.140Z,11.93
2017-03-29T01:12:21.763Z,11.89
2017-03-29T01:13:21.671Z,11.88
2017-03-29T01:14:18.149Z,11.85
2017-03-29T01:15:21.497Z,11.93
2017-03-29T01:16:22.390Z,11.93
2017-03-29T01:17:22.497Z,11.97
2017-03-29T01:18:22.431Z,11.95
2017-03-29T01:19:22.082Z,11.86
2017-03-29T01:20:21.853Z,11.81
2017-03-29T01:21:21.923Z,11.88
2017-03-29T01:22:22.441Z,11.88
2017-03-29T01:23:28.178Z,11.83
2017-03-29T01:24:22.322Z,11.94
2017-03-29T01:25:21.770Z,11.76
2017-03-29T01:26:16.913Z,11.72
2017-03-29T01:27:21.742Z,11.81
2017-03-29T01:28:21.990Z,11.81
2017-03-29T01:29:18.222Z,11.78
2017-03-29T01:30:22.378Z,11.86
2017-03-29T01:31:21.592Z,11.84
2017-03-29T01:32:21.568Z,11.88
2017-03-29T01:33:22.173Z,11.88
2017-03-29T01:34:18.772Z,11.85
2017-03-29T01:35:22.028Z,11.85
2017-03-29T01:36:21.840Z,11.78
2017-03-29T01:37:21.882Z,11.79
2017-03-29T01:38:21.569Z,11.77
2017-03-29T01:39:21.639Z,11.72
2017-03-29T01:40:22.261Z,11.69
2017-03-29T01:41:22.261Z,11.74
2017-03-29T01:42:22.264Z,11.69
2017-03-29T01:43:22.430Z,11.71
2017-03-29T01:44:13.138Z,11.60
2017-03-29T01:45:21.850Z,11.68
2017-03-29T01:46:21.953Z,11.59
2017-03-29T01:47:16.953Z,11.55
2017-03-29T01:48:21.850Z,11.49
2017-03-29T01:49:21.881Z,11.55
2017-03-29T01:50:22.607Z,11.48
2017-03-29T01:51:21.658Z,11.52
2017-03-29T01:52:21.517Z,11.53
2017-03-29T01:53:21.689Z,11.55
2017-03-29T01:54:21.677Z,11.54
2017-03-29T01:55:27.039Z,11.48
2017-03-29T01:56:21.643Z,11.41
2017-03-29T01:57:21.689Z,11.48
2017-03-29T01:58:21.531Z,11.47
2017-03-29T01:59:18.430Z,11.42
2017-03-29T02:00:22.281Z,11.39
2017-03-29T02:01:22.103Z,11.33
2017-03-29T02:02:21.909Z,11.37
2017-03-29T02:03:21.984Z,11.40
2017-03-29T02:04:21.569Z,11.28
2017-03-29T02:05:21.555Z,11.36
2017-03-29T02:06:22.498Z,11.30
2017-03-29T02:07:28.038Z,11.34
2017-03-29T02:08:22.236Z,11.26
2017-03-29T02:09:18.293Z,11.27
2017-03-29T02:10:21.771Z,11.29
2017-03-29T02:11:32.561Z,11.30
2017-03-29T02:12:27.286Z,11.37
2017-03-29T02:13:29.732Z,11.20
2017-03-29T02:14:25.859Z,11.23
2017-03-29T02:16:21.774Z,11.32
2017-03-29T02:17:27.585Z,11.28
2017-03-29T02:18:26.892Z,11.30
2017-03-29T02:19:29.287Z,11.29
2017-03-29T02:20:22.627Z,11.24
2017-03-29T02:21:17.393Z,11.14
2017-03-29T02:22:22.382Z,11.19
2017-03-29T02:23:22.187Z,11.08
2017-03-29T02:24:22.350Z,11.10
2017-03-29T02:25:22.312Z,11.02
2017-03-29T02:26:21.639Z,11.08
2017-03-29T02:27:21.738Z,11.09
2017-03-29T02:28:21.985Z,11.08
2017-03-29T02:29:18.775Z,11.16
2017-03-29T02:30:21.740Z,11.19
2017-03-29T02:31:21.707Z,11.16
2017-03-29T02:32:22.093Z,11.25
2017-03-29T02:33:17.461Z,11.12
2017-03-29T02:34:22.184Z,11.09
2017-03-29T02:35:22.051Z,11.15
2017-03-29T02:36:21.900Z,11.15
2017-03-29T02:37:22.292Z,11.19
2017-03-29T02:38:21.954Z,11.27
2017-03-29T02:39:22.319Z,11.26
2017-03-29T02:40:22.091Z,11.22
2017-03-29T02:41:22.192Z,11.28
2017-03-29T02:42:22.638Z,11.20
2017-03-29T02:43:22.203Z,11.20
2017-03-29T02:44:19.339Z,11.15
2017-03-29T02:45:16.761Z,11.08
2017-03-29T02:46:22.609Z,11.05
2017-03-29T02:47:21.549Z,11.14
2017-03-29T02:48:21.719Z,11.03
2017-03-29T02:49:22.631Z,11.07
2017-03-29T02:50:21.560Z,11.08
2017-03-29T02:51:22.441Z,11.07
2017-03-29T02:52:21.949Z,11.18
2017-03-29T02:53:21.972Z,11.22
2017-03-29T02:54:22.340Z,11.18
2017-03-29T02:55:16.935Z,11.18
2017-03-29T02:56:21.762Z,11.16
2017-03-29T02:57:21.853Z,11.19
2017-03-29T02:58:21.587Z,11.12
2017-03-29T02:59:18.650Z,11.16
2017-03-29T03:00:22.350Z,11.04
2017-03-29T03:01:22.071Z,11.04
2017-03-29T03:02:21.971Z,11.05
2017-03-29T03:03:22.670Z,11.10
2017-03-29T03:04:16.711Z,11.01
2017-03-29T03:05:22.450Z,11.06
2017-03-29T03:06:21.880Z,11.00
2017-03-29T03:07:21.912Z,11.02
2017-03-29T03:08:21.979Z,11.00
2017-03-29T03:09:19.359Z,11.00
2017-03-29T03:10:16.722Z,11.06
2017-03-29T03:11:21.991Z,11.05
2017-03-29T03:12:22.091Z,10.95
2017-03-29T03:13:21.883Z,10.92
2017-03-29T03:14:19.288Z,10.97
2017-03-29T03:15:21.753Z,11.02
2017-03-29T03:16:21.770Z,11.00
2017-03-29T03:17:21.773Z,10.93
2017-03-29T03:18:22.010Z,10.94
2017-03-29T03:19:21.742Z,10.95
2017-03-29T03:20:21.587Z,10.82
2017-03-29T03:21:21.793Z,10.88
2017-03-29T03:22:21.629Z,10.91
2017-03-29T03:23:22.507Z,10.88
2017-03-29T03:24:16.683Z,10.98
2017-03-29T03:25:17.407Z,10.96
2017-03-29T03:26:22.021Z,10.83
2017-03-29T03:27:22.589Z,10.95
2017-03-29T03:28:21.629Z,10.93
2017-03-29T03:29:19.272Z,10.85
2017-03-29T03:30:22.109Z,10.83
2017-03-29T03:31:21.773Z,11.00
2017-03-29T03:32:22.323Z,10.91
2017-03-29T03:33:22.627Z,10.88
2017-03-29T03:34:22.059Z,10.92
2017-03-29T03:35:21.963Z,10.93
2017-03-29T03:36:22.420Z,10.92
2017-03-29T03:37:21.996Z,10.91
2017-03-29T03:38:27.689Z,10.79
2017-03-29T03:39:22.659Z,10.85
2017-03-29T03:40:22.582Z,10.78
2017-03-29T03:41:21.819Z,10.78
2017-03-29T03:42:21.999Z,10.74
2017-03-29T03:43:22.142Z,10.72
2017-03-29T03:44:19.364Z,10.79
2017-03-29T03:45:22.417Z,10.85
2017-03-29T03:46:22.303Z,10.68
2017-03-29T03:47:22.409Z,10.77
2017-03-29T03:48:22.222Z,10.76
2017-03-29T03:49:22.281Z,10.71
2017-03-29T03:50:22.381Z,10.79
2017-03-29T03:51:21.697Z,10.61
2017-03-29T03:52:22.289Z,10.59
2017-03-29T03:53:22.041Z,10.65
2017-03-29T03:54:22.110Z,10.70
2017-03-29T03:55:21.922Z,10.67
2017-03-29T03:56:21.741Z,10.68
2017-03-29T03:57:22.428Z,10.61
2017-03-29T03:58:22.355Z,10.54
2017-03-29T03:59:19.430Z,10.63
2017-03-29T04:00:21.538Z,10.53
2017-03-29T04:01:22.568Z,10.59
2017-03-29T04:02:21.881Z,10.60
2017-03-29T04:03:21.792Z,10.54
2017-03-29T04:04:21.578Z,10.62
2017-03-29T04:05:22.449Z,10.60
2017-03-29T04:06:22.418Z,10.56
2017-03-29T04:07:22.745Z,10.54
2017-03-29T04:08:22.448Z,10.54
2017-03-29T04:09:19.455Z,10.53
2017-03-29T04:10:23.079Z,10.48
2017-03-29T04:11:22.569Z,10.51
2017-03-29T04:12:16.900Z,10.41
2017-03-29T04:13:22.187Z,10.49
2017-03-29T04:14:19.459Z,10.43
2017-03-29T04:15:21.836Z,10.47
2017-03-29T04:16:21.688Z,10.46
2017-03-29T04:17:21.773Z,10.54
2017-03-29T04:18:21.628Z,10.53
2017-03-29T04:19:22.622Z,10.45
2017-03-29T04:20:22.111Z,10.46
2017-03-29T04:22:13.531Z,10.28
2017-03-29T04:23:22.081Z,10.27
2017-03-29T04:24:22.252Z,10.36
2017-03-29T04:26:22.771Z,10.26
2017-03-29T04:27:21.640Z,10.25
2017-03-29T04:28:22.628Z,10.21
2017-03-29T04:29:19.420Z,10.29
2017-03-29T04:30:22.649Z,10.20
2017-03-29T04:31:22.325Z,10.21
2017-03-29T04:32:22.091Z,10.34
2017-03-29T04:33:21.955Z,10.32
2017-03-29T04:34:21.952Z,10.26
2017-03-29T04:35:22.091Z,10.32
2017-03-29T04:36:22.204Z,10.18
2017-03-29T04:37:22.532Z,10.19
2017-03-29T04:38:21.580Z,10.25
2017-03-29T04:39:22.534Z,10.23
2017-03-29T04:40:22.371Z,10.20
2017-03-29T04:41:21.588Z,10.31
2017-03-29T04:42:22.002Z,10.24
2017-03-29T04:43:22.122Z,10.19
2017-03-29T04:44:19.812Z,10.24
2017-03-29T04:45:21.661Z,10.18
2017-03-29T04:46:22.002Z,10.23
2017-03-29T04:47:21.923Z,10.15
2017-03-29T04:48:21.812Z,10.27
2017-03-29T04:49:21.932Z,10.23
2017-03-29T04:50:21.698Z,10.22
2017-03-29T04:51:21.672Z,10.24
2017-03-29T04:52:16.905Z,10.22
2017-03-29T04:53:22.022Z,10.10
2017-03-29T04:54:21.971Z,10.19
2017-03-29T04:55:21.944Z,10.18
2017-03-29T04:56:22.525Z,10.10
2017-03-29T04:57:22.252Z,10.12
2017-03-29T04:58:22.813Z,10.07
2017-03-29T04:59:19.810Z,10.12
2017-03-29T05:00:21.589Z,10.08
2017-03-29T05:01:21.954Z,10.11
2017-03-29T05:02:17.354Z,9.94
2017-03-29T05:03:22.491Z,9.99
2017-03-29T05:04:22.773Z,10.07
2017-03-29T05:05:16.761Z,10.00
2017-03-29T05:06:22.514Z,10.03
2017-03-29T05:07:21.949Z,10.05
2017-03-29T05:09:19.869Z,10.07
2017-03-29T05:10:27.701Z,10.04
2017-03-29T05:11:21.528Z,10.19
2017-03-29T05:12:16.796Z,10.17
2017-03-29T05:13:22.481Z,10.18
2017-03-29T05:14:20.248Z,10.20
2017-03-29T05:15:22.298Z,10.14
2017-03-29T05:16:22.232Z,10.12
2017-03-29T05:17:22.258Z,10.09
2017-03-29T05:18:22.001Z,10.17
2017-03-29T05:19:22.083Z,10.03
2017-03-29T05:20:21.679Z,10.25
2017-03-29T05:21:21.701Z,10.20
2017-03-29T05:22:22.625Z,10.19
2017-03-29T05:23:21.783Z,10.20
2017-03-29T05:24:27.409Z,10.10
2017-03-29T05:25:21.691Z,10.22
2017-03-29T05:26:16.851Z,10.19
2017-03-29T05:27:22.037Z,10.25
2017-03-29T05:28:17.204Z,10.15
2017-03-29T05:29:20.397Z,10.32
2017-03-29T05:30:22.905Z,10.29
2017-03-29T05:31:22.046Z,10.28
2017-03-29T05:32:17.068Z,10.27
2017-03-29T05:33:17.274Z,10.28
2017-03-29T05:34:16.470Z,10.33
2017-03-29T05:35:22.469Z,10.37
2017-03-29T05:36:17.314Z,10.36
2017-03-29T05:37:22.281Z,10.32
2017-03-29T05:38:22.082Z,10.45
2017-03-29T05:40:21.893Z,10.41
2017-03-29T05:41:21.973Z,10.49
2017-03-29T05:42:16.887Z,10.44
2017-03-29T05:43:21.903Z,10.32
2017-03-29T05:44:21.049Z,10.41
2017-03-29T05:45:27.773Z,10.33
2017-03-29T05:46:21.883Z,10.42
2017-03-29T05:47:21.973Z,10.35
2017-03-29T05:48:21.883Z,10.37
2017-03-29T05:49:21.881Z,10.42
2017-03-29T05:50:21.669Z,10.40
2017-03-29T05:51:21.541Z,10.41
2017-03-29T05:52:21.614Z,10.46
2017-03-29T05:53:22.394Z,10.39
2017-03-29T05:57:23.283Z,10.60
2017-03-29T05:58:22.025Z,10.68
2017-03-29T05:59:20.670Z,10.65
2017-03-29T06:00:21.550Z,10.72
2017-03-29T06:01:22.556Z,10.87
2017-03-29T06:02:21.584Z,10.93
2017-03-29T06:03:22.523Z,10.92
2017-03-29T06:04:21.624Z,11.05
2017-03-29T06:05:21.621Z,11.00
2017-03-29T06:06:18.003Z,10.89
2017-03-29T06:07:10.534Z,11.04
2017-03-29T06:08:21.904Z,11.08
2017-03-29T06:09:21.996Z,11.17
2017-03-29T06:10:16.768Z,11.27
2017-03-29T06:11:21.903Z,11.25
2017-03-29T06:12:21.744Z,11.30
2017-03-29T06:13:21.804Z,11.35
2017-03-29T06:14:20.785Z,11.42
2017-03-29T06:15:21.510Z,11.49
2017-03-29T06:16:23.241Z,11.49
2017-03-29T06:17:22.963Z,11.53
2017-03-29T06:18:21.985Z,11.54
2017-03-29T06:19:16.896Z,11.49
2017-03-29T06:20:22.835Z,11.52
2017-03-29T06:21:22.055Z,11.49
2017-03-29T06:22:27.305Z,11.52
2017-03-29T06:23:34.919Z,11.44
2017-03-29T06:24:22.094Z,11.53
2017-03-29T06:25:21.775Z,11.60
2017-03-29T06:26:21.513Z,11.65
2017-03-29T06:27:21.615Z,11.71
2017-03-29T06:28:16.684Z,11.72
2017-03-29T06:29:20.756Z,11.83
2017-03-29T06:30:21.947Z,11.98
2017-03-29T06:31:21.975Z,12.10
2017-03-29T06:32:22.074Z,12.19
2017-03-29T06:33:21.807Z,12.23
2017-03-29T06:34:21.918Z,12.20
2017-03-29T06:35:22.133Z,12.21
2017-03-29T06:36:21.907Z,12.23
2017-03-29T06:37:21.766Z,12.17
2017-03-29T06:38:22.036Z,12.19
2017-03-29T06:39:21.494Z,12.24
2017-03-29T06:40:21.644Z,12.22
2017-03-29T06:41:21.834Z,12.26
2017-03-29T06:42:21.903Z,12.30
2017-03-29T06:43:21.891Z,12.27
2017-03-29T06:44:20.610Z,12.23
2017-03-29T06:45:22.521Z,12.24
2017-03-29T06:46:22.386Z,12.24
2017-03-29T06:47:21.874Z,12.20
2017-03-29T06:48:21.814Z,12.14
2017-03-29T06:49:22.073Z,12.10
2017-03-29T06:50:17.369Z,12.05
2017-03-29T06:51:22.523Z,12.12
2017-03-29T06:52:21.995Z,12.17
2017-03-29T06:53:22.465Z,12.10
2017-03-29T06:54:19.887Z,12.12
2017-03-29T06:55:17.492Z,12.12
2017-03-29T06:56:21.652Z,12.17
2017-03-29T06:57:21.930Z,12.09
2017-03-29T06:58:22.401Z,12.00
2017-03-29T06:59:20.802Z,11.96
2017-03-29T07:00:22.301Z,11.99
2017-03-29T07:01:21.895Z,12.02
2017-03-29T07:02:21.889Z,12.05
2017-03-29T07:03:21.717Z,12.12
2017-03-29T07:04:21.641Z,12.17
2017-03-29T07:05:22.062Z,12.27
2017-03-29T07:06:17.032Z,12.35
2017-03-29T07:07:22.056Z,12.42
2017-03-29T07:08:21.673Z,12.38
2017-03-29T07:09:21.742Z,12.35
2017-03-29T07:10:21.777Z,12.42
2017-03-29T07:11:20.243Z,12.43
2017-03-29T07:12:22.207Z,12.31
2017-03-29T07:13:21.722Z,12.26
2017-03-29T07:14:20.787Z,12.30
2017-03-29T07:15:21.538Z,12.33
2017-03-29T07:16:21.611Z,12.31
2017-03-29T07:17:22.592Z,12.30
2017-03-29T07:18:21.775Z,12.27
2017-03-29T07:19:21.614Z,12.26
2017-03-29T07:20:22.570Z,12.27
2017-03-29T07:21:21.771Z,12.34
2017-03-29T07:22:21.611Z,12.30
2017-03-29T07:23:22.363Z,12.37
2017-03-29T07:24:20.311Z,12.38
2017-03-29T07:25:22.336Z,12.53
2017-03-29T07:26:22.305Z,12.49
2017-03-29T07:27:17.458Z,12.58
2017-03-29T07:28:27.359Z,12.62
2017-03-29T07:29:20.731Z,12.61
2017-03-29T07:30:22.581Z,12.71
2017-03-29T07:31:22.403Z,12.71
2017-03-29T07:32:21.903Z,12.64
2017-03-29T07:33:22.184Z,12.63
2017-03-29T07:34:17.186Z,12.60
2017-03-29T07:35:22.774Z,12.60
2017-03-29T07:36:21.762Z,12.70
2017-03-29T07:37:22.453Z,12.72
2017-03-29T07:38:22.534Z,12.74
2017-03-29T07:39:20.852Z,12.67
2017-03-29T07:40:21.639Z,12.57
2017-03-29T07:41:21.641Z,12.64
2017-03-29T07:42:21.893Z,12.57
2017-03-29T07:43:21.883Z,12.69
2017-03-29T07:44:21.133Z,12.77
2017-03-29T07:45:22.083Z,12.79
2017-03-29T07:46:22.137Z,12.82
2017-03-29T07:47:21.923Z,12.85
2017-03-29T07:48:22.032Z,12.88
2017-03-29T07:49:22.034Z,12.93
2017-03-29T07:50:21.932Z,12.92
2017-03-29T07:51:22.187Z,13.00
2017-03-29T07:52:21.550Z,12.93
2017-03-29T07:53:21.995Z,12.96
2017-03-29T07:54:20.612Z,12.99
2017-03-29T07:55:22.402Z,13.05
2017-03-29T07:56:22.347Z,13.08
2017-03-29T07:57:17.355Z,13.11
2017-03-29T07:58:21.765Z,13.14
2017-03-29T07:59:21.022Z,13.21
2017-03-29T08:00:22.265Z,13.16
2017-03-29T08:01:21.665Z,13.14
2017-03-29T08:02:22.494Z,13.21
2017-03-29T08:03:22.474Z,13.18
2017-03-29T08:04:22.392Z,13.14
2017-03-29T08:05:27.641Z,13.20
2017-03-29T08:06:23.298Z,13.23
2017-03-29T08:07:22.788Z,13.28
2017-03-29T08:08:21.751Z,13.31
2017-03-29T08:09:21.501Z,13.31
2017-03-29T08:10:21.570Z,13.35
2017-03-29T08:11:21.840Z,13.34
2017-03-29T08:12:22.171Z,13.33
2017-03-29T08:20:27.387Z,13.50
2017-03-29T08:21:27.185Z,13.56
2017-03-29T08:22:27.173Z,13.60
2017-03-29T08:23:22.112Z,13.64
2017-03-29T08:24:20.189Z,13.67
2017-03-29T08:25:22.320Z,13.70
2017-03-29T08:26:22.208Z,13.74
2017-03-29T08:28:23.731Z,13.75
2017-03-29T08:29:29.094Z,13.76
2017-03-29T08:30:22.341Z,13.76
2017-03-29T08:31:21.772Z,13.79
2017-03-29T08:32:21.885Z,13.78
2017-03-29T08:33:22.213Z,13.80
2017-03-29T08:34:21.993Z,13.83
2017-03-29T08:35:21.652Z,13.88
2017-03-29T08:36:21.745Z,13.86
2017-03-29T08:37:22.679Z,13.88
2017-03-29T08:38:22.184Z,13.90
2017-03-29T08:39:22.005Z,13.90
2017-03-29T08:40:23.102Z,13.96
2017-03-29T08:41:21.959Z,13.96
2017-03-29T08:42:21.597Z,13.98
2017-03-29T08:43:22.335Z,13.98
2017-03-29T08:44:21.486Z,14.00
2017-03-29T08:45:22.176Z,14.01
2017-03-29T08:46:17.281Z,14.01
2017-03-29T08:47:17.099Z,14.03
2017-03-29T08:48:27.172Z,14.01
2017-03-29T08:49:17.344Z,14.00
2017-03-29T08:50:22.407Z,13.98
2017-03-29T08:51:22.250Z,14.01
2017-03-29T08:52:16.854Z,14.09
2017-03-29T08:53:21.775Z,14.14
2017-03-29T08:54:20.049Z,14.11
2017-03-29T08:55:17.313Z,14.12
2017-03-29T08:56:21.990Z,14.17
2017-03-29T08:57:21.871Z,14.17
2017-03-29T08:58:21.769Z,14.16
2017-03-29T08:59:21.637Z,14.25
2017-03-29T09:00:21.626Z,14.24
2017-03-29T09:01:21.629Z,14.31
2017-03-29T09:02:27.214Z,14.47
2017-03-29T09:03:22.012Z,14.35
2017-03-29T09:04:27.766Z,14.37
2017-03-29T09:05:22.275Z,14.32
2017-03-29T09:06:22.589Z,14.28
2017-03-29T09:07:22.036Z,14.37
2017-03-29T09:08:21.917Z,14.36
2017-03-29T09:09:16.841Z,14.35
2017-03-29T09:10:22.726Z,14.35
2017-03-29T09:11:21.921Z,14.35
2017-03-29T09:12:21.885Z,14.42
2017-03-29T09:13:21.749Z,14.37
2017-03-29T09:14:21.687Z,14.45
2017-03-29T09:15:22.643Z,14.42
2017-03-29T09:16:16.885Z,14.43
2017-03-29T09:17:22.455Z,14.42
2017-03-29T09:18:22.561Z,14.43
2017-03-29T09:19:15.919Z,14.44
2017-03-29T09:20:21.731Z,14.48
2017-03-29T09:21:21.586Z,14.51
2017-03-29T09:22:21.643Z,14.46
2017-03-29T09:23:21.517Z,14.58
2017-03-29T09:24:20.286Z,14.61
2017-03-29T09:26:22.287Z,14.59
2017-03-29T09:27:27.729Z,14.66
2017-03-29T09:28:22.339Z,14.56
2017-03-29T09:29:24.038Z,14.49
2017-03-29T09:30:22.408Z,14.52
2017-03-29T09:31:27.359Z,14.55
2017-03-29T09:32:27.291Z,14.59
2017-03-29T09:33:22.528Z,14.59
2017-03-29T09:34:22.346Z,14.59
2017-03-29T09:35:21.549Z,14.60
2017-03-29T09:36:21.698Z,14.74
2017-03-29T09:37:27.319Z,14.82
2017-03-29T09:38:21.770Z,14.92
2017-03-29T09:39:12.430Z,14.94
2017-03-29T09:42:17.421Z,14.93
2017-03-29T09:43:22.325Z,14.90
2017-03-29T09:44:22.158Z,14.98
2017-03-29T09:46:22.360Z,14.88
2017-03-29T09:47:22.461Z,14.98
2017-03-29T09:48:17.996Z,14.98
2017-03-29T09:49:21.866Z,14.92
2017-03-29T09:50:16.825Z,14.97
2017-03-29T09:51:22.318Z,15.00
2017-03-29T09:52:34.687Z,15.06
2017-03-29T09:53:21.739Z,15.10
2017-03-29T09:54:20.110Z,15.08
2017-03-29T09:58:21.909Z,14.88
2017-03-29T09:59:22.223Z,15.15
2017-03-29T10:00:22.090Z,15.23
2017-03-29T10:01:23.341Z,15.35
2017-03-29T10:02:22.407Z,15.39
2017-03-29T10:03:21.648Z,15.37
2017-03-29T10:04:24.170Z,15.42
2017-03-29T10:05:22.402Z,15.45
2017-03-29T10:06:16.839Z,15.42
2017-03-29T10:07:22.032Z,15.36
2017-03-29T10:08:22.497Z,15.32
2017-03-29T10:09:23.378Z,15.31
2017-03-29T10:11:27.257Z,15.41
2017-03-29T10:12:22.441Z,15.39
2017-03-29T10:14:22.409Z,15.52
2017-03-29T10:15:21.945Z,15.54
2017-03-29T10:16:18.059Z,15.58
2017-03-29T10:17:22.046Z,15.64
2017-03-29T10:18:21.768Z,15.73
2017-03-29T10:19:21.696Z,15.65
2017-03-29T10:20:17.303Z,15.69
2017-03-29T10:21:21.803Z,15.58
2017-03-29T10:22:21.779Z,15.52
2017-03-29T10:23:16.797Z,15.50
2017-03-29T10:24:15.442Z,15.58
2017-03-29T10:25:20.370Z,15.74
2017-03-29T10:26:22.319Z,15.84
2017-03-29T10:27:21.571Z,15.97
2017-03-29T10:28:21.676Z,16.03
2017-03-29T10:29:21.807Z,16.03
2017-03-29T10:30:16.795Z,16.01
2017-03-29T10:31:22.519Z,16.08
2017-03-29T10:32:21.925Z,16.18
2017-03-29T10:33:21.698Z,16.22
2017-03-29T10:34:21.766Z,16.15
2017-03-29T10:35:21.609Z,16.27
2017-03-29T10:36:22.387Z,16.29
2017-03-29T10:37:21.774Z,16.35
2017-03-29T10:38:21.882Z,16.16
2017-03-29T10:40:28.072Z,16.31
2017-03-29T10:41:17.471Z,16.29
2017-03-29T10:42:09.695Z,16.28
2017-03-29T10:43:22.489Z,16.34
2017-03-29T10:45:24.471Z,16.36
2017-03-29T10:46:22.638Z,16.26
2017-03-29T10:47:22.773Z,16.16
2017-03-29T10:51:22.325Z,16.27
2017-03-29T10:53:28.393Z,16.29
2017-03-29T10:54:19.778Z,16.29
2017-03-29T10:55:21.774Z,16.28
2017-03-29T11:01:21.984Z,15.97
2017-03-29T11:02:27.591Z,15.94
2017-03-29T11:03:16.953Z,15.92
2017-03-29T11:04:21.995Z,15.94
2017-03-29T11:05:21.753Z,15.96
2017-03-29T11:06:22.044Z,15.95
2017-03-29T11:07:21.681Z,15.92
2017-03-29T11:08:21.754Z,15.85
2017-03-29T11:09:16.922Z,15.79
2017-03-29T11:10:21.997Z,15.78
2017-03-29T11:11:22.195Z,15.74
2017-03-29T11:12:22.484Z,15.71
2017-03-29T11:13:22.515Z,15.72
2017-03-29T11:14:22.045Z,15.72
2017-03-29T11:15:20.758Z,15.66
2017-03-29T11:16:30.213Z,15.60
2017-03-29T11:17:29.919Z,15.63
2017-03-29T11:19:52.527Z,15.63
2017-03-29T11:20:13.895Z,15.66
2017-03-29T11:22:21.976Z,15.87
2017-03-29T11:25:46.740Z,15.99
2017-03-29T11:25:52.366Z,16.34
2017-03-29T11:26:13.906Z,16.44
2017-03-29T11:27:22.161Z,16.49
2017-03-29T11:28:31.135Z,16.49
2017-03-29T11:29:17.470Z,16.48
2017-03-29T11:30:12.867Z,16.47
2017-03-29T11:31:17.031Z,16.44
2017-03-29T11:32:17.111Z,16.42
2017-03-29T11:33:12.808Z,16.41
2017-03-29T11:35:17.338Z,16.47
2017-03-29T11:36:13.705Z,16.47
2017-03-29T11:37:15.148Z,16.51
2017-03-29T11:38:13.499Z,16.51
2017-03-29T11:39:17.076Z,16.11
2017-03-29T11:40:15.394Z,16.05
2017-03-29T11:41:13.590Z,16.03
2017-03-29T11:42:12.458Z,16.08
2017-03-29T11:43:16.925Z,16.05
2017-03-29T11:44:15.852Z,16.05
2017-03-29T11:45:13.580Z,16.04
2017-03-29T11:46:15.220Z,16.04
2017-03-29T11:47:17.330Z,16.04
2017-03-29T11:48:16.999Z,16.04
2017-03-29T11:49:13.965Z,16.03
2017-03-29T11:50:13.299Z,16.03
2017-03-29T11:51:17.142Z,16.04
2017-03-29T11:52:15.605Z,16.04
2017-03-29T11:53:17.145Z,16.03
2017-03-29T11:54:15.770Z,16.02
2017-03-29T11:55:13.112Z,16.02
2017-03-29T11:56:15.801Z,16.04
2017-03-29T11:57:13.400Z,16.07
2017-03-29T11:58:17.491Z,16.09
2017-03-29T11:59:16.197Z,16.10
2017-03-29T12:00:14.346Z,16.09
2017-03-29T12:01:17.070Z,16.08
2017-03-29T12:02:18.198Z,16.11
2017-03-29T12:03:17.410Z,16.16
2017-03-29T12:04:21.692Z,16.22
2017-03-29T12:05:13.507Z,16.26
2017-03-29T12:06:15.409Z,16.29
2017-03-29T12:07:17.546Z,16.31
2017-03-29T12:08:16.680Z,16.34
2017-03-29T12:09:14.396Z,16.37
2017-03-29T12:10:15.220Z,16.41
2017-03-29T12:11:13.967Z,16.45
2017-03-29T12:12:17.102Z,16.50
2017-03-29T12:13:13.604Z,16.52
2017-03-29T12:14:16.602Z,16.61
2017-03-29T12:15:16.829Z,16.72
2017-03-29T12:16:22.362Z,16.74
2017-03-29T12:17:16.189Z,16.69
2017-03-29T12:18:16.623Z,16.66
2017-03-29T12:19:13.603Z,16.64
2017-03-29T12:20:16.791Z,16.68
2017-03-29T12:21:16.608Z,16.66
2017-03-29T12:22:13.231Z,16.61
2017-03-29T12:23:22.166Z,16.58
2017-03-29T12:24:21.924Z,16.59
2017-03-29T12:25:18.153Z,16.56
2017-03-29T12:26:17.523Z,16.54
2017-03-29T12:27:15.797Z,16.54
2017-03-29T12:28:16.139Z,16.64
2017-03-29T12:29:15.783Z,16.70
2017-03-29T12:30:21.915Z,16.69
2017-03-29T12:31:16.620Z,16.69
2017-03-29T12:32:16.990Z,16.71
2017-03-29T12:33:15.603Z,16.72
2017-03-29T12:34:13.937Z,16.73
2017-03-29T12:35:15.374Z,16.74
2017-03-29T12:36:17.132Z,16.81
2017-03-29T12:37:16.592Z,16.82
2017-03-29T12:38:22.598Z,16.90
2017-03-29T12:39:17.074Z,16.93
2017-03-29T12:40:16.615Z,17.03
2017-03-29T12:41:17.254Z,16.97
2017-03-29T12:42:15.636Z,16.96
2017-03-29T12:43:14.430Z,16.96
2017-03-29T12:44:16.995Z,16.95
2017-03-29T12:45:14.866Z,16.92
2017-03-29T12:46:17.086Z,17.01
2017-03-29T12:47:15.274Z,17.02
2017-03-29T12:48:15.384Z,17.06
2017-03-29T12:49:16.637Z,17.11
2017-03-29T12:50:16.673Z,17.15
2017-03-29T12:51:21.758Z,17.16
2017-03-29T12:52:15.273Z,17.11
2017-03-29T12:53:12.903Z,17.03
2017-03-29T12:54:13.159Z,17.04
2017-03-29T12:55:15.638Z,17.12
2017-03-29T12:56:22.297Z,17.17
2017-03-29T12:57:17.410Z,17.22
2017-03-29T12:58:14.404Z,17.27
2017-03-29T12:59:22.300Z,17.29
2017-03-29T13:00:14.301Z,17.20
2017-03-29T13:01:21.947Z,17.15
2017-03-29T13:02:16.585Z,17.12
2017-03-29T13:03:21.563Z,17.08
2017-03-29T13:04:16.648Z,17.11
2017-03-29T13:05:17.197Z,17.08
2017-03-29T13:06:15.639Z,17.11
2017-03-29T13:07:16.646Z,17.10
2017-03-29T13:08:21.921Z,17.11
2017-03-29T13:09:22.019Z,17.13
2017-03-29T13:10:17.141Z,17.12
2017-03-29T13:11:17.507Z,17.13
2017-03-29T13:12:21.753Z,17.12
2017-03-29T13:15:17.269Z,17.40
2017-03-29T13:16:14.667Z,17.58
2017-03-29T13:22:15.525Z,18.29
2017-03-29T13:23:21.424Z,18.58
2017-03-29T13:24:17.402Z,19.04
2017-03-29T13:25:21.883Z,19.37
2017-03-29T13:26:22.451Z,18.82
2017-03-29T13:27:17.526Z,18.63
2017-03-29T13:28:16.640Z,19.12
2017-03-29T13:29:14.272Z,19.66
2017-03-29T13:30:17.119Z,19.66
2017-03-29T13:31:15.210Z,19.00
2017-03-29T13:32:26.774Z,18.55
2017-03-29T13:33:15.893Z,18.15
2017-03-29T13:34:15.527Z,17.92
2017-03-29T13:35:18.305Z,17.82
2017-03-29T13:36:22.256Z,17.80
2017-03-29T13:37:17.320Z,17.77
2017-03-29T13:38:14.718Z,18.48
2017-03-29T13:39:14.847Z,18.91